Time;durP1;ratioP1;P1;durP2;ratioP2;P2;SDS_P1;SDS_P2;PMS_P1;PMS_P2;Temp;Humidity;BMP_temperature;BMP_pressure;BME280_temperature;BME280_humidity;BME280_pressure;Samples;Min_cycle;Max_cycle;Signal;HPM_P1;HPM_P2
2023/01/12 00:02:03;;;;;;;;;;;10.20;99.90;;;;;;5078845;28;19908;-84
2023/01/12 00:04:30;;;;;;;;;;;10.20;99.90;;;;;;5080637;28;20361;-83
2023/01/12 00:06:56;;;;;;;;;;;10.20;99.90;;;;;;5090090;28;19948;-84
2023/01/12 00:09:21;;;;;;;;;;;10.20;99.90;;;;;;5091439;28;19916;-85
2023/01/12 00:11:47;;;;;;;;;;;10.20;99.90;;;;;;5088565;28;19970;-84
2023/01/12 00:14:12;;;;;;;;;;;10.20;99.90;;;;;;5088470;28;20301;-85
2023/01/12 00:16:38;;;;;;;;;;;10.20;99.90;;;;;;5083812;28;19917;-85
2023/01/12 00:19:11;;;;;;;;;;;10.30;99.90;;;;;;5092149;28;19915;-85
2023/01/12 00:22:01;;;;;;;;;;;10.30;99.90;;;;;;5083783;28;19920;-85
2023/01/12 00:24:29;;;;;;;;;;;10.30;99.90;;;;;;5083829;28;20365;-84
2023/01/12 00:26:56;;;;;;;;;;;10.20;99.90;;;;;;5099099;28;19908;-85
2023/01/12 00:29:22;;;;;;;;;;;10.20;99.90;;;;;;5083962;28;20365;-84
2023/01/12 00:31:48;;;;;;;;;;;10.10;99.90;;;;;;5086488;28;20030;-84
2023/01/12 00:34:14;;;;;;;;;;;10.10;99.90;;;;;;5083489;28;19924;-85
2023/01/12 00:36:39;;;;;;;;;;;10.10;99.90;;;;;;5085303;28;19912;-84
2023/01/12 00:39:05;;;;;;;;;;;10.10;99.90;;;;;;5086263;28;19913;-85
2023/01/12 00:46:59;;;;;;;;;;;10.00;99.90;;;;;;5088019;28;19919;-85
2023/01/12 00:49:25;;;;;;;;;;;10.00;99.90;;;;;;5086097;28;19976;-84
2023/01/12 00:51:50;;;;;;;;;;;10.10;99.90;;;;;;5084640;28;19908;-85
2023/01/12 00:54:16;;;;;;;;;;;10.10;99.90;;;;;;5085828;28;19980;-85
2023/01/12 00:56:41;;;;;;;;;;;10.10;99.90;;;;;;5085557;28;19909;-85
2023/01/12 00:59:07;;;;;;;;;;;10.10;99.90;;;;;;5086625;28;19912;-84
2023/01/12 01:01:33;;;;;;;;;;;10.20;99.90;;;;;;5088034;28;20019;-85
2023/01/12 01:03:59;;;;;;;;;;;10.10;99.90;;;;;;5081500;28;19913;-85
2023/01/12 01:06:25;;;;;;;;;;;10.10;99.90;;;;;;5099060;28;20254;-85
2023/01/12 01:08:50;;;;;;;;;;;10.20;99.90;;;;;;5081468;28;19912;-84
2023/01/12 01:11:16;;;;;;;;;;;10.10;99.90;;;;;;5070521;28;19916;-85
2023/01/12 01:13:44;;;;;;;;;;;10.10;99.90;;;;;;5081793;28;19912;-85
2023/01/12 01:16:11;;;;;;;;;;;10.30;99.90;;;;;;5084314;28;19909;-85
2023/01/12 01:18:37;;;;;;;;;;;10.30;99.90;;;;;;5095094;28;19958;-85
2023/01/12 01:21:03;;;;;;;;;;;10.30;99.90;;;;;;5090447;28;19971;-85
2023/01/12 01:23:31;;;;;;;;;;;10.30;99.90;;;;;;5094464;28;19978;-85
2023/01/12 01:26:01;;;;;;;;;;;10.30;99.90;;;;;;5088430;28;19999;-85
2023/01/12 01:28:26;;;;;;;;;;;10.30;99.90;;;;;;5071883;28;19943;-85
2023/01/12 01:30:51;;;;;;;;;;;10.30;99.90;;;;;;5083507;28;19920;-85
2023/01/12 01:33:17;;;;;;;;;;;10.30;99.90;;;;;;5082265;28;19943;-84
2023/01/12 01:35:43;;;;;;;;;;;10.30;99.90;;;;;;5109000;28;20399;-85
2023/01/12 01:38:09;;;;;;;;;;;10.30;99.90;;;;;;5090065;28;19944;-85
2023/01/12 01:40:40;;;;;;;;;;;10.30;99.90;;;;;;5082586;28;19913;-85
2023/01/12 01:43:08;;;;;;;;;;;10.30;99.90;;;;;;5088670;28;19920;-84
2023/01/12 01:45:33;;;;;;;;;;;10.30;99.90;;;;;;5092692;28;19909;-85
2023/01/12 01:47:59;;;;;;;;;;;10.30;99.90;;;;;;5081866;28;20253;-85
2023/01/12 01:50:31;;;;;;;;;;;10.20;99.90;;;;;;5076535;28;19966;-85
2023/01/12 01:52:58;;;;;;;;;;;10.20;99.90;;;;;;5089050;28;19914;-85
2023/01/12 01:55:27;;;;;;;;;;;10.30;99.90;;;;;;5077257;28;20328;-85
2023/01/12 01:57:58;;;;;;;;;;;10.30;99.90;;;;;;5087888;28;20002;-85
2023/01/12 02:00:24;;;;;;;;;;;10.30;99.90;;;;;;5085232;28;19923;-85
2023/01/12 02:02:50;;;;;;;;;;;10.20;99.90;;;;;;5085146;28;20608;-85
2023/01/12 02:05:18;;;;;;;;;;;10.20;99.90;;;;;;5081980;28;19918;-85
2023/01/12 02:07:45;;;;;;;;;;;10.20;99.90;;;;;;5091101;28;19912;-85
2023/01/12 02:10:10;;;;;;;;;;;10.20;99.90;;;;;;5086093;28;20369;-85
2023/01/12 02:18:09;;;;;;;;;;;10.10;99.90;;;;;;5064473;28;20439;-85
2023/01/12 02:20:38;;;;;;;;;;;10.10;99.90;;;;;;5084102;28;19912;-85
2023/01/12 02:23:16;;;;;;;;;;;10.10;99.90;;;;;;5088848;28;19973;-85
2023/01/12 02:25:48;;;;;;;;;;;10.10;99.90;;;;;;5089289;28;19912;-85
2023/01/12 02:28:28;;;;;;;;;;;10.10;99.90;;;;;;5083253;28;20003;-84
2023/01/12 02:31:13;;;;;;;;;;;10.10;99.90;;;;;;5084521;28;19955;-85
2023/01/12 02:33:50;;;;;;;;;;;10.10;99.90;;;;;;5091870;28;19917;-85
2023/01/12 02:36:41;;;;;;;;;;;10.20;99.90;;;;;;5079307;28;19912;-85
2023/01/12 02:39:19;;;;;;;;;;;10.30;99.90;;;;;;5072466;28;19959;-85
2023/01/12 02:44:41;;;;;;;;;;;10.30;99.90;;;;;;5082569;28;20277;-85
2023/01/12 02:47:09;;;;;;;;;;;10.40;99.90;;;;;;5081839;28;19913;-87
2023/01/12 02:49:39;;;;;;;;;;;10.30;99.90;;;;;;5086509;28;19942;-86
2023/01/12 02:52:08;;;;;;;;;;;10.30;99.90;;;;;;5080225;28;19919;-86
2023/01/12 02:54:34;;;;;;;;;;;10.40;99.90;;;;;;5082183;28;19913;-86
2023/01/12 02:57:03;;;;;;;;;;;10.40;99.90;;;;;;5086350;28;19913;-87
2023/01/12 02:59:31;;;;;;;;;;;10.40;99.90;;;;;;5081692;28;20317;-87
2023/01/12 03:02:02;;;;;;;;;;;10.40;99.90;;;;;;5082054;28;19912;-86
2023/01/12 03:04:30;;;;;;;;;;;10.40;99.90;;;;;;5074457;28;20017;-86
2023/01/12 03:06:55;;;;;;;;;;;10.40;99.90;;;;;;5086885;28;19918;-86
2023/01/12 03:09:27;;;;;;;;;;;10.40;99.90;;;;;;5081365;28;19959;-87
2023/01/12 03:11:55;;;;;;;;;;;10.40;99.90;;;;;;5079727;28;20012;-86
2023/01/12 03:14:21;;;;;;;;;;;10.40;99.90;;;;;;5088888;28;19912;-86
2023/01/12 03:16:47;;;;;;;;;;;10.30;99.90;;;;;;5090493;28;19967;-87
2023/01/12 03:19:26;;;;;;;;;;;10.30;99.90;;;;;;5081639;28;19913;-86
2023/01/12 03:21:54;;;;;;;;;;;10.10;99.90;;;;;;5086669;28;19909;-86
2023/01/12 03:24:34;;;;;;;;;;;10.10;99.90;;;;;;5084661;28;19915;-87
2023/01/12 03:27:09;;;;;;;;;;;10.00;99.90;;;;;;5077762;28;19913;-86
2023/01/12 03:29:37;;;;;;;;;;;10.00;99.90;;;;;;5077270;28;20360;-86
2023/01/12 03:32:03;;;;;;;;;;;9.80;99.90;;;;;;5086466;28;19912;-87
2023/01/12 03:34:29;;;;;;;;;;;9.80;99.90;;;;;;5083298;28;19921;-85
2023/01/12 03:37:13;;;;;;;;;;;9.80;99.90;;;;;;5079953;28;19909;-85
2023/01/12 03:39:48;;;;;;;;;;;9.80;99.90;;;;;;5080271;28;19917;-86
2023/01/12 03:42:16;;;;;;;;;;;9.70;99.90;;;;;;5098703;28;19915;-86
2023/01/12 03:44:49;;;;;;;;;;;9.70;99.90;;;;;;5099208;28;19909;-85
2023/01/12 03:47:20;;;;;;;;;;;9.70;99.90;;;;;;5089539;28;19916;-84
2023/01/12 03:49:49;;;;;;;;;;;9.70;99.90;;;;;;5062475;28;20366;-86
2023/01/12 03:52:16;;;;;;;;;;;9.60;99.90;;;;;;5083905;28;19912;-86
2023/01/12 03:54:42;;;;;;;;;;;9.70;99.90;;;;;;5080403;28;19909;-87
2023/01/12 03:57:08;;;;;;;;;;;9.80;99.90;;;;;;5091166;28;19908;-86
2023/01/12 03:59:34;;;;;;;;;;;9.70;99.90;;;;;;5088869;28;19917;-86
2023/01/12 04:02:00;;;;;;;;;;;9.70;99.90;;;;;;5078151;28;19908;-85
2023/01/12 04:04:25;;;;;;;;;;;9.70;99.90;;;;;;5065323;28;19908;-86
2023/01/12 04:06:51;;;;;;;;;;;9.70;99.90;;;;;;5086694;28;20319;-85
2023/01/12 04:09:16;;;;;;;;;;;9.70;99.90;;;;;;5076706;28;19908;-85
2023/01/12 04:14:26;;;;;;;;;;;9.80;99.90;;;;;;5079828;28;20335;-87
2023/01/12 04:16:51;;;;;;;;;;;9.80;99.90;;;;;;5083286;28;19912;-86
2023/01/12 04:19:17;;;;;;;;;;;9.80;99.90;;;;;;5083785;28;19925;-86
2023/01/12 04:24:26;;;;;;;;;;;9.80;99.90;;;;;;5092890;28;20391;-87
2023/01/12 04:26:52;;;;;;;;;;;9.80;99.90;;;;;;5090415;28;19932;-86
2023/01/12 04:29:17;;;;;;;;;;;9.80;99.90;;;;;;5087087;28;20281;-87
2023/01/12 04:31:43;;;;;;;;;;;9.80;99.90;;;;;;5073780;28;19912;-87
2023/01/12 04:34:08;;;;;;;;;;;9.80;99.90;;;;;;5081172;28;20288;-86
2023/01/12 04:36:34;;;;;;;;;;;9.80;99.90;;;;;;5086445;28;20014;-86
2023/01/12 04:38:59;;;;;;;;;;;9.80;99.90;;;;;;5089851;28;19947;-86
2023/01/12 04:41:25;;;;;;;;;;;9.80;99.90;;;;;;5082956;28;19912;-86
2023/01/12 04:43:50;;;;;;;;;;;9.70;99.90;;;;;;5082095;28;19912;-85
2023/01/12 04:46:16;;;;;;;;;;;9.80;99.90;;;;;;5081571;28;19931;-85
2023/01/12 04:48:42;;;;;;;;;;;9.80;99.90;;;;;;5084335;28;19992;-85
2023/01/12 04:51:08;;;;;;;;;;;9.80;99.90;;;;;;5083802;28;19913;-86
2023/01/12 04:53:34;;;;;;;;;;;9.80;99.90;;;;;;5080955;28;21727;-86
2023/01/12 04:56:02;;;;;;;;;;;9.80;99.90;;;;;;5082478;28;19909;-85
2023/01/12 04:58:27;;;;;;;;;;;9.80;99.90;;;;;;5084403;28;20292;-84
2023/01/12 05:00:53;;;;;;;;;;;9.70;99.90;;;;;;5084156;28;19913;-84
2023/01/12 05:03:19;;;;;;;;;;;9.70;99.90;;;;;;5084302;28;19912;-87
2023/01/12 05:05:44;;;;;;;;;;;9.70;99.90;;;;;;5081562;28;19917;-86
2023/01/12 05:10:55;;;;;;;;;;;9.60;99.90;;;;;;5082260;28;19920;-85
2023/01/12 05:13:21;;;;;;;;;;;9.60;99.90;;;;;;5081498;28;19916;-87
2023/01/12 05:15:47;;;;;;;;;;;9.50;99.90;;;;;;5083557;28;19975;-84
2023/01/12 05:18:15;;;;;;;;;;;9.50;99.90;;;;;;5082776;28;19920;-86
2023/01/12 05:20:41;;;;;;;;;;;9.50;99.90;;;;;;5075159;28;19913;-85
2023/01/12 05:23:06;;;;;;;;;;;9.40;99.90;;;;;;5076170;28;19952;-85
2023/01/12 05:25:32;;;;;;;;;;;9.30;99.90;;;;;;5079056;28;19912;-84
2023/01/12 05:27:58;;;;;;;;;;;9.30;99.90;;;;;;5085149;28;20381;-85
2023/01/12 05:30:24;;;;;;;;;;;9.30;99.90;;;;;;5076923;28;19921;-85
2023/01/12 05:32:49;;;;;;;;;;;9.20;99.90;;;;;;5073646;28;20377;-86
2023/01/12 05:35:15;;;;;;;;;;;9.20;99.90;;;;;;5079095;28;19923;-86
2023/01/12 05:37:40;;;;;;;;;;;9.20;99.90;;;;;;5071935;28;20377;-86
2023/01/12 05:40:06;;;;;;;;;;;9.10;99.90;;;;;;5073669;28;19912;-85
2023/01/12 05:45:16;;;;;;;;;;;9.10;99.90;;;;;;5080742;28;19919;-86
2023/01/12 05:47:41;;;;;;;;;;;9.00;99.90;;;;;;5092282;28;20365;-85
2023/01/12 05:50:07;;;;;;;;;;;9.10;99.90;;;;;;5099006;28;19908;-84
2023/01/12 05:52:33;;;;;;;;;;;9.10;99.90;;;;;;5078896;28;20433;-84
2023/01/12 05:54:58;;;;;;;;;;;9.00;99.90;;;;;;5082791;28;19908;-87
2023/01/12 05:57:23;;;;;;;;;;;9.00;99.90;;;;;;5087795;28;19913;-85
2023/01/12 05:59:49;;;;;;;;;;;9.00;99.90;;;;;;5076856;28;19916;-89
2023/01/12 06:02:16;;;;;;;;;;;8.90;99.90;;;;;;5079530;28;20000;-88
2023/01/12 06:04:42;;;;;;;;;;;8.90;99.90;;;;;;5064831;28;19912;-87
2023/01/12 06:07:11;;;;;;;;;;;8.90;99.90;;;;;;5077673;28;19908;-87
2023/01/12 06:09:37;;;;;;;;;;;8.90;99.90;;;;;;5079029;28;20392;-84
2023/01/12 06:14:46;;;;;;;;;;;8.90;99.90;;;;;;5060329;28;19916;-85
2023/01/12 06:17:12;;;;;;;;;;;8.90;99.90;;;;;;5059088;28;19908;-85
2023/01/12 06:19:37;;;;;;;;;;;8.90;99.90;;;;;;5057279;28;19960;-84
2023/01/12 06:22:03;;;;;;;;;;;8.90;99.90;;;;;;5056721;28;19908;-84
2023/01/12 06:24:28;;;;;;;;;;;9.00;99.90;;;;;;5073796;28;20403;-86
2023/01/12 06:26:54;;;;;;;;;;;8.90;99.90;;;;;;5082798;28;19914;-87
2023/01/12 06:29:20;;;;;;;;;;;8.90;99.90;;;;;;5077547;28;19912;-85
2023/01/12 06:31:46;;;;;;;;;;;9.00;99.90;;;;;;5078548;28;20373;-85
2023/01/12 06:34:11;;;;;;;;;;;8.90;99.90;;;;;;5078901;28;19923;-85
2023/01/12 06:36:37;;;;;;;;;;;9.00;99.90;;;;;;5079158;28;20429;-85
2023/01/12 06:39:03;;;;;;;;;;;8.90;99.90;;;;;;5080972;28;20009;-86
2023/01/12 06:44:13;;;;;;;;;;;8.90;99.90;;;;;;5080436;28;19961;-84
2023/01/12 06:46:38;;;;;;;;;;;8.90;99.90;;;;;;5080177;28;20365;-85
2023/01/12 06:49:04;;;;;;;;;;;9.00;99.90;;;;;;5079198;28;19909;-85
2023/01/12 06:51:29;;;;;;;;;;;9.10;99.90;;;;;;5077957;28;19909;-85
2023/01/12 06:53:55;;;;;;;;;;;9.10;99.90;;;;;;5078174;28;20242;-85
2023/01/12 06:56:20;;;;;;;;;;;9.00;99.90;;;;;;5080360;28;19913;-85
2023/01/12 06:58:46;;;;;;;;;;;9.00;99.90;;;;;;5082361;28;20377;-87
2023/01/12 07:01:12;;;;;;;;;;;8.90;99.90;;;;;;5089060;28;19953;-85
2023/01/12 07:03:38;;;;;;;;;;;8.90;99.90;;;;;;5098181;28;19932;-84
2023/01/12 07:06:04;;;;;;;;;;;8.90;99.90;;;;;;5099197;28;19930;-84
2023/01/12 07:08:30;;;;;;;;;;;9.00;99.90;;;;;;5099428;28;19913;-84
2023/01/12 07:10:59;;;;;;;;;;;9.00;99.90;;;;;;5099744;28;20337;-84
2023/01/12 07:13:24;;;;;;;;;;;9.00;99.90;;;;;;5099891;28;19908;-84
2023/01/12 07:15:51;;;;;;;;;;;9.00;99.90;;;;;;5098537;28;20400;-83
2023/01/12 07:18:16;;;;;;;;;;;9.00;99.90;;;;;;5098459;28;20314;-84
2023/01/12 07:20:42;;;;;;;;;;;9.00;99.90;;;;;;5097799;28;19952;-84
2023/01/12 07:23:07;;;;;;;;;;;9.00;99.90;;;;;;5096932;28;19931;-84
2023/01/12 07:25:33;;;;;;;;;;;9.00;99.90;;;;;;5097030;28;20019;-84
2023/01/12 07:27:59;;;;;;;;;;;9.00;99.90;;;;;;5096893;28;19912;-84
2023/01/12 07:30:25;;;;;;;;;;;9.00;99.90;;;;;;5097157;28;20016;-82
2023/01/12 07:32:51;;;;;;;;;;;9.30;99.90;;;;;;5098189;28;19912;-83
2023/01/12 07:35:17;;;;;;;;;;;9.40;99.90;;;;;;5096220;28;20384;-84
2023/01/12 07:37:49;;;;;;;;;;;9.30;99.90;;;;;;5097081;28;19930;-84
2023/01/12 07:40:15;;;;;;;;;;;9.30;99.90;;;;;;5096830;28;20380;-84
2023/01/12 07:42:40;;;;;;;;;;;9.50;99.90;;;;;;5096520;28;19929;-84
2023/01/12 07:45:06;;;;;;;;;;;9.50;99.90;;;;;;5097565;28;19915;-85
2023/01/12 07:47:31;;;;;;;;;;;9.40;99.90;;;;;;5096825;28;19915;-84
2023/01/12 07:49:57;;;;;;;;;;;9.40;99.90;;;;;;5094733;28;19908;-86
2023/01/12 07:52:22;;;;;;;;;;;9.50;99.90;;;;;;5096750;28;19908;-86
2023/01/12 07:54:48;;;;;;;;;;;9.60;99.90;;;;;;5097797;28;20293;-86
2023/01/12 07:57:13;;;;;;;;;;;9.70;99.90;;;;;;5098926;28;19999;-85
2023/01/12 07:59:39;;;;;;;;;;;9.80;99.90;;;;;;5096383;28;19916;-85
2023/01/12 08:02:05;;;;;;;;;;;9.80;99.90;;;;;;5097365;28;20002;-86
2023/01/12 08:04:30;;;;;;;;;;;9.80;99.90;;;;;;5096565;28;19908;-84
2023/01/12 08:06:56;;;;;;;;;;;9.80;99.90;;;;;;5097112;28;20024;-83
2023/01/12 08:09:21;;;;;;;;;;;9.70;99.90;;;;;;5097573;28;20403;-84
2023/01/12 08:11:47;;;;;;;;;;;9.80;99.90;;;;;;5096056;28;19916;-84
2023/01/12 08:14:35;;;;;;;;;;;9.90;99.90;;;;;;5087739;28;19912;-83
2023/01/12 08:17:02;;;;;;;;;;;10.10;99.90;;;;;;5076571;28;19893;-84
2023/01/12 08:19:35;;;;;;;;;;;10.00;99.90;;;;;;5067960;28;19917;-86
2023/01/12 08:22:02;;;;;;;;;;;10.00;99.90;;;;;;5076172;28;19958;-83
2023/01/12 08:24:30;;;;;;;;;;;10.00;99.90;;;;;;5078271;28;19909;-84
2023/01/12 08:26:56;;;;;;;;;;;10.00;99.90;;;;;;5079423;28;19908;-84
2023/01/12 08:29:32;;;;;;;;;;;10.00;99.90;;;;;;5078591;28;20361;-82
2023/01/12 08:32:01;;;;;;;;;;;10.30;99.90;;;;;;5078882;28;19915;-83
2023/01/12 08:34:27;;;;;;;;;;;10.30;99.90;;;;;;5079566;28;19955;-83
2023/01/12 08:36:53;;;;;;;;;;;10.20;99.90;;;;;;5079476;28;19908;-83
2023/01/12 08:39:18;;;;;;;;;;;10.20;99.90;;;;;;5078934;28;20282;-84
2023/01/12 08:41:44;;;;;;;;;;;10.10;99.90;;;;;;5081509;28;19908;-83
2023/01/12 08:44:09;;;;;;;;;;;10.30;99.90;;;;;;5081609;28;19909;-83
2023/01/12 08:46:35;;;;;;;;;;;10.20;99.90;;;;;;5079980;28;19955;-83
2023/01/12 08:49:01;;;;;;;;;;;10.20;99.90;;;;;;5079439;28;19908;-82
2023/01/12 08:51:27;;;;;;;;;;;10.50;99.90;;;;;;5080111;28;19909;-81
2023/01/12 08:53:53;;;;;;;;;;;10.50;99.90;;;;;;5079604;28;19951;-82
2023/01/12 08:56:18;;;;;;;;;;;10.50;99.90;;;;;;5080411;28;19921;-81
2023/01/12 08:58:44;;;;;;;;;;;10.50;99.90;;;;;;5080267;28;19919;-82
2023/01/12 09:01:11;;;;;;;;;;;10.50;99.90;;;;;;5079073;28;19908;-82
2023/01/12 09:03:37;;;;;;;;;;;10.50;99.90;;;;;;5078585;28;19947;-81
2023/01/12 09:06:13;;;;;;;;;;;10.50;99.90;;;;;;5077914;28;20379;-81
2023/01/12 09:08:38;;;;;;;;;;;10.60;99.90;;;;;;5078389;28;19908;-82
2023/01/12 09:11:04;;;;;;;;;;;10.70;99.90;;;;;;5080847;28;19916;-82
2023/01/12 09:13:31;;;;;;;;;;;10.80;99.90;;;;;;5079953;28;19947;-81
2023/01/12 09:16:00;;;;;;;;;;;10.70;99.90;;;;;;5079885;28;19909;-82
2023/01/12 09:18:26;;;;;;;;;;;10.70;99.90;;;;;;5078360;28;19913;-83
2023/01/12 09:20:51;;;;;;;;;;;10.70;99.90;;;;;;5079340;28;19935;-82
2023/01/12 09:23:16;;;;;;;;;;;10.70;99.90;;;;;;5079533;28;20058;-81
2023/01/12 09:25:42;;;;;;;;;;;10.80;99.90;;;;;;5077536;28;19957;-81
2023/01/12 09:28:07;;;;;;;;;;;10.80;99.90;;;;;;5079547;28;20266;-82
2023/01/12 09:30:33;;;;;;;;;;;10.80;99.90;;;;;;5079313;28;19909;-81
2023/01/12 09:32:58;;;;;;;;;;;10.80;99.90;;;;;;5080313;28;19912;-81
2023/01/12 09:35:24;;;;;;;;;;;10.80;99.90;;;;;;5078987;28;19968;-82
2023/01/12 09:37:49;;;;;;;;;;;10.90;99.90;;;;;;5078797;28;19947;-81
2023/01/12 09:40:15;;;;;;;;;;;10.90;99.90;;;;;;5078599;28;20362;-81
2023/01/12 09:48:17;;;;;;;;;;;10.90;99.90;;;;;;5079545;28;19916;-81
2023/01/12 09:50:50;;;;;;;;;;;11.00;99.90;;;;;;5077771;28;19908;-82
2023/01/12 09:53:15;;;;;;;;;;;11.00;99.90;;;;;;5079011;28;19909;-82
2023/01/12 09:55:53;;;;;;;;;;;11.10;99.90;;;;;;5078138;28;20117;-81
2023/01/12 09:58:37;;;;;;;;;;;11.00;99.90;;;;;;5077804;28;19919;-82
2023/01/12 10:01:11;;;;;;;;;;;11.10;99.90;;;;;;5079410;28;19909;-82
2023/01/12 10:03:38;;;;;;;;;;;11.00;99.90;;;;;;5078408;28;20002;-82
2023/01/12 10:06:04;;;;;;;;;;;10.90;99.90;;;;;;5079594;28;19909;-82
2023/01/12 10:08:35;;;;;;;;;;;10.90;99.90;;;;;;5079831;28;20002;-82
2023/01/12 10:11:15;;;;;;;;;;;11.00;99.90;;;;;;5077817;28;19908;-82
2023/01/12 10:13:44;;;;;;;;;;;11.00;99.90;;;;;;5077224;28;19908;-82
2023/01/12 10:16:15;;;;;;;;;;;11.20;99.90;;;;;;5079330;28;20006;-81
2023/01/12 10:18:44;;;;;;;;;;;11.10;99.90;;;;;;5077768;28;19951;-82
2023/01/12 10:21:10;;;;;;;;;;;11.10;99.90;;;;;;5077732;28;19913;-81
2023/01/12 10:23:35;;;;;;;;;;;11.10;99.90;;;;;;5077397;28;20366;-81
2023/01/12 10:26:16;;;;;;;;;;;11.10;99.90;;;;;;5078678;28;19916;-81
2023/01/12 10:28:43;;;;;;;;;;;11.20;99.90;;;;;;5077350;28;19954;-82
2023/01/12 10:31:17;;;;;;;;;;;11.20;99.90;;;;;;5078143;28;19916;-81
2023/01/12 10:34:01;;;;;;;;;;;11.20;99.90;;;;;;5076565;28;22009;-82
2023/01/12 10:36:28;;;;;;;;;;;11.30;99.90;;;;;;5077120;28;19923;-81
2023/01/12 10:38:56;;;;;;;;;;;11.20;99.90;;;;;;5080760;28;19912;-83
2023/01/12 10:41:25;;;;;;;;;;;11.20;99.90;;;;;;5077272;28;19915;-82
2023/01/12 10:43:57;;;;;;;;;;;11.30;99.90;;;;;;5077315;28;20008;-82
2023/01/12 10:46:25;;;;;;;;;;;11.30;99.90;;;;;;5076851;28;20443;-82
2023/01/12 10:48:52;;;;;;;;;;;11.40;99.90;;;;;;5076584;28;20281;-81
2023/01/12 10:51:22;;;;;;;;;;;11.50;99.90;;;;;;5078055;28;19908;-82
2023/01/12 11:03:23;;;;;;;;;;;11.60;99.90;;;;;;5076284;28;19915;-81
2023/01/12 11:05:48;;;;;;;;;;;11.60;99.90;;;;;;5076138;28;20273;-81
2023/01/12 11:08:20;;;;;;;;;;;11.50;99.90;;;;;;5076950;28;19909;-81
2023/01/12 11:10:45;;;;;;;;;;;11.60;99.90;;;;;;5078319;28;19909;-81
2023/01/12 11:13:22;;;;;;;;;;;11.50;99.90;;;;;;5078351;28;19915;-82
2023/01/12 11:16:01;;;;;;;;;;;11.60;99.90;;;;;;5094350;28;20369;-81
2023/01/12 11:18:47;;;;;;;;;;;11.60;99.90;;;;;;5096895;28;19934;-82
2023/01/12 11:21:15;;;;;;;;;;;11.60;99.90;;;;;;5097163;28;19942;-82
2023/01/12 11:23:55;;;;;;;;;;;11.60;99.90;;;;;;5097053;28;19912;-81
2023/01/12 11:26:24;;;;;;;;;;;11.70;99.90;;;;;;5096470;28;20376;-80
2023/01/12 11:28:51;;;;;;;;;;;11.80;99.90;;;;;;5096945;28;19912;-80
2023/01/12 11:31:24;;;;;;;;;;;11.80;99.90;;;;;;5097830;28;19920;-81
2023/01/12 11:34:13;;;;;;;;;;;11.80;99.90;;;;;;5098528;28;19987;-80
2023/01/12 11:36:41;;;;;;;;;;;11.80;99.90;;;;;;5097240;28;20025;-81
2023/01/12 11:39:11;;;;;;;;;;;11.80;99.90;;;;;;5100102;28;19913;-81
2023/01/12 11:41:37;;;;;;;;;;;11.80;99.90;;;;;;5101053;28;19908;-80
2023/01/12 11:44:06;;;;;;;;;;;11.70;99.90;;;;;;5097678;28;20300;-80
2023/01/12 11:46:38;;;;;;;;;;;11.90;99.90;;;;;;5097171;28;19908;-80
2023/01/12 11:49:10;;;;;;;;;;;12.00;99.90;;;;;;5097205;28;19908;-81
2023/01/12 11:51:36;;;;;;;;;;;12.00;99.90;;;;;;5098568;28;19947;-82
2023/01/12 11:54:02;;;;;;;;;;;11.90;99.90;;;;;;5097965;28;19915;-82
2023/01/12 11:56:41;;;;;;;;;;;11.90;99.90;;;;;;5098478;28;20300;-82
2023/01/12 11:59:19;;;;;;;;;;;11.90;99.90;;;;;;5099104;28;19912;-82
2023/01/12 12:01:53;;;;;;;;;;;11.90;99.90;;;;;;5098450;28;19908;-82
2023/01/12 12:04:36;;;;;;;;;;;12.00;99.90;;;;;;5101065;28;19915;-83
2023/01/12 12:07:01;;;;;;;;;;;11.90;99.90;;;;;;5101617;28;19909;-81
2023/01/12 12:09:29;;;;;;;;;;;11.80;99.90;;;;;;5101951;28;19908;-81
2023/01/12 12:11:58;;;;;;;;;;;11.70;99.90;;;;;;5103161;28;19908;-81
2023/01/12 12:14:42;;;;;;;;;;;11.70;99.90;;;;;;5101526;28;19965;-81
2023/01/12 12:17:27;;;;;;;;;;;11.70;99.90;;;;;;5099958;28;19908;-81
2023/01/12 12:20:13;;;;;;;;;;;11.70;99.90;;;;;;5100275;28;19912;-80
2023/01/12 12:22:51;;;;;;;;;;;11.70;99.90;;;;;;5101510;28;19909;-82
2023/01/12 12:25:22;;;;;;;;;;;11.60;99.90;;;;;;5100101;28;19908;-81
2023/01/12 12:27:54;;;;;;;;;;;11.60;99.90;;;;;;5102511;28;19916;-82
2023/01/12 12:30:23;;;;;;;;;;;11.60;99.90;;;;;;5103485;28;19908;-82
2023/01/12 12:33:07;;;;;;;;;;;11.60;99.90;;;;;;5101162;28;20342;-81
2023/01/12 12:35:33;;;;;;;;;;;11.60;99.90;;;;;;5099836;28;19916;-82
2023/01/12 12:38:03;;;;;;;;;;;11.60;99.90;;;;;;5101968;28;20372;-82
2023/01/12 12:46:23;;;;;;;;;;;11.50;99.90;;;;;;5101655;28;19915;-81
2023/01/12 12:48:56;;;;;;;;;;;11.40;99.90;;;;;;5099927;28;19909;-82
2023/01/12 12:51:23;;;;;;;;;;;11.40;99.90;;;;;;5101527;28;19931;-83
2023/01/12 12:53:49;;;;;;;;;;;11.50;99.90;;;;;;5100592;28;19912;-82
2023/01/12 12:56:15;;;;;;;;;;;11.50;99.90;;;;;;5099762;28;20262;-83
2023/01/12 12:58:41;;;;;;;;;;;11.40;99.90;;;;;;5086363;28;19959;-83
2023/01/12 13:01:18;;;;;;;;;;;11.40;99.90;;;;;;5079703;28;19908;-83
2023/01/12 13:03:45;;;;;;;;;;;11.40;99.90;;;;;;5078684;28;19908;-81
2023/01/12 13:06:31;;;;;;;;;;;11.50;99.90;;;;;;5081451;28;19916;-81
2023/01/12 13:08:56;;;;;;;;;;;11.50;99.90;;;;;;5065591;28;19909;-81
2023/01/12 13:11:40;;;;;;;;;;;11.40;99.90;;;;;;5080558;28;19916;-81
2023/01/12 13:14:17;;;;;;;;;;;11.50;99.90;;;;;;5077558;28;20312;-81
2023/01/12 13:16:50;;;;;;;;;;;11.50;99.90;;;;;;5095565;28;19920;-81
2023/01/12 13:19:31;;;;;;;;;;;11.50;99.90;;;;;;5079928;28;19912;-81
2023/01/12 13:21:58;;;;;;;;;;;11.50;99.90;;;;;;5078940;28;19990;-82
2023/01/12 13:24:26;;;;;;;;;;;11.40;99.90;;;;;;5078363;28;19944;-82
2023/01/12 13:26:52;;;;;;;;;;;11.40;99.90;;;;;;5095364;28;20331;-81
2023/01/12 13:29:27;;;;;;;;;;;11.50;99.90;;;;;;5079156;28;19976;-82
2023/01/12 13:31:53;;;;;;;;;;;11.60;99.90;;;;;;5079638;28;20507;-81
2023/01/12 13:34:34;;;;;;;;;;;11.60;99.90;;;;;;5078665;28;19923;-82
2023/01/12 13:37:14;;;;;;;;;;;11.50;99.90;;;;;;5079932;28;19922;-82
2023/01/12 13:39:43;;;;;;;;;;;11.40;99.90;;;;;;5078673;28;19916;-82
2023/01/12 13:44:59;;;;;;;;;;;11.60;99.90;;;;;;5079731;28;19915;-82
2023/01/12 13:47:25;;;;;;;;;;;11.70;99.90;;;;;;5079669;28;19909;-81
2023/01/12 13:49:55;;;;;;;;;;;11.70;99.90;;;;;;5078474;28;19912;-82
2023/01/12 13:52:28;;;;;;;;;;;11.80;99.90;;;;;;5081640;28;20001;-83
2023/01/12 13:54:53;;;;;;;;;;;11.80;99.90;;;;;;5073754;28;20389;-84
2023/01/12 13:57:20;;;;;;;;;;;11.70;99.90;;;;;;5075674;28;19912;-83
2023/01/12 14:00:08;;;;;;;;;;;11.90;99.90;;;;;;5088719;28;20358;-83
2023/01/12 14:02:34;;;;;;;;;;;11.90;99.90;;;;;;5096665;28;19912;-83
2023/01/12 14:05:00;;;;;;;;;;;12.00;99.90;;;;;;5080576;28;20003;-83
2023/01/12 14:07:43;;;;;;;;;;;12.10;99.90;;;;;;5080710;28;19958;-83
2023/01/12 14:10:17;;;;;;;;;;;12.00;99.90;;;;;;5088109;28;19908;-83
2023/01/12 14:12:54;;;;;;;;;;;11.90;99.90;;;;;;5079972;28;19964;-83
2023/01/12 14:18:10;;;;;;;;;;;11.90;99.90;;;;;;5079833;28;19923;-83
2023/01/12 14:20:40;;;;;;;;;;;11.80;99.90;;;;;;5094284;28;19908;-83
2023/01/12 14:23:23;;;;;;;;;;;11.70;99.90;;;;;;5091533;28;19908;-83
2023/01/12 14:26:21;;;;;;;;;;;11.60;99.90;;;;;;5080822;28;19909;-83
2023/01/12 14:28:47;;;;;;;;;;;11.70;99.90;;;;;;5062189;28;19991;-83
2023/01/12 14:31:28;;;;;;;;;;;11.60;99.90;;;;;;5079241;28;19913;-83
2023/01/12 14:33:59;;;;;;;;;;;11.60;99.90;;;;;;5080410;28;19916;-83
2023/01/12 14:36:29;;;;;;;;;;;11.60;99.90;;;;;;5087580;28;19908;-83
2023/01/12 14:38:56;;;;;;;;;;;11.50;99.90;;;;;;5091119;28;19920;-82
2023/01/12 14:46:58;;;;;;;;;;;11.40;99.90;;;;;;5075078;28;19915;-82
2023/01/12 14:49:28;;;;;;;;;;;11.40;99.90;;;;;;5091536;22;19924;-61
2023/01/12 14:51:55;;;;;;;;;;;11.30;99.90;;;;;;5075341;28;19930;-60
2023/01/12 14:54:25;;;;;;;;;;;11.30;99.90;;;;;;5072312;28;19912;-59
2023/01/12 14:56:55;;;;;;;;;;;11.30;99.90;;;;;;5075115;28;19959;-62
2023/01/12 14:59:23;;;;;;;;;;;11.40;99.90;;;;;;5071364;28;20428;-61
2023/01/12 15:01:49;;;;;;;;;;;11.30;99.90;;;;;;5072974;28;19908;-61
2023/01/12 15:04:16;;;;;;;;;;;11.40;99.90;;;;;;5072954;28;19912;-61
2023/01/12 15:06:42;;;;;;;;;;;11.40;99.90;;;;;;5072326;28;19919;-62
2023/01/12 15:09:21;;;;;;;;;;;11.60;99.90;;;;;;5074858;28;19913;-61
2023/01/12 15:11:47;;;;;;;;;;;11.60;99.90;;;;;;5074007;28;19959;-61
2023/01/12 15:14:19;;;;;;;;;;;11.50;99.90;;;;;;5070500;28;20315;-60
2023/01/12 15:27:42;;;;;;;;;;;11.80;99.90;;;;;;5071324;28;20270;-60
2023/01/12 15:30:09;;;;;;;;;;;11.80;99.90;;;;;;5072311;28;19912;-61
2023/01/12 15:32:36;;;;;;;;;;;11.80;99.90;;;;;;5072696;28;20348;-62
2023/01/12 15:35:05;;;;;;;;;;;11.80;99.90;;;;;;5068081;28;19995;-62
2023/01/12 15:37:30;;;;;;;;;;;11.90;99.90;;;;;;5071821;28;20023;-60
2023/01/12 15:39:58;;;;;;;;;;;11.80;99.90;;;;;;5071651;28;20015;-60
2023/01/12 15:42:25;;;;;;;;;;;11.90;99.90;;;;;;5071811;28;20322;-61
2023/01/12 15:44:52;;;;;;;;;;;11.80;99.90;;;;;;5070208;28;20291;-59